sensor_id;sensor_type;location;lat;lon;timestamp;P1;durP1;ratioP1;P2;durP2;ratioP2
75207;SDS011;63795;55.684;37.864;2022-12-10T00:03:02;44.57;;;16.27;;
75207;SDS011;63795;55.684;37.864;2022-12-10T00:08:03;37.30;;;9.25;;
75207;SDS011;63795;55.684;37.864;2022-12-10T00:13:04;44.15;;;16.02;;
75207;SDS011;63795;55.684;37.864;2022-12-10T00:18:04;33.00;;;13.98;;
75207;SDS011;63795;55.684;37.864;2022-12-10T00:23:04;34.00;;;11.80;;
75207;SDS011;63795;55.684;37.864;2022-12-10T00:28:05;42.35;;;11.32;;
75207;SDS011;63795;55.684;37.864;2022-12-10T00:33:05;33.60;;;12.52;;
75207;SDS011;63795;55.684;37.864;2022-12-10T00:38:06;46.38;;;16.50;;
75207;SDS011;63795;55.684;37.864;2022-12-10T00:43:06;41.47;;;12.87;;
75207;SDS011;63795;55.684;37.864;2022-12-10T00:48:07;54.17;;;17.53;;
75207;SDS011;63795;55.684;37.864;2022-12-10T00:53:07;36.87;;;12.07;;
75207;SDS011;63795;55.684;37.864;2022-12-10T00:58:08;39.33;;;14.30;;
75207;SDS011;63795;55.684;37.864;2022-12-10T01:03:08;48.40;;;18.13;;
75207;SDS011;63795;55.684;37.864;2022-12-10T01:08:09;34.58;;;16.30;;
75207;SDS011;63795;55.684;37.864;2022-12-10T01:13:09;43.50;;;14.90;;
75207;SDS011;63795;55.684;37.864;2022-12-10T01:18:10;51.47;;;20.38;;
75207;SDS011;63795;55.684;37.864;2022-12-10T01:23:10;36.85;;;12.75;;
75207;SDS011;63795;55.684;37.864;2022-12-10T01:28:11;48.17;;;15.30;;
75207;SDS011;63795;55.684;37.864;2022-12-10T01:33:11;49.87;;;16.03;;
75207;SDS011;63795;55.684;37.864;2022-12-10T01:38:12;32.67;;;10.33;;
75207;SDS011;63795;55.684;37.864;2022-12-10T01:43:13;39.83;;;16.33;;
75207;SDS011;63795;55.684;37.864;2022-12-10T01:48:15;31.13;;;12.63;;
75207;SDS011;63795;55.684;37.864;2022-12-10T01:53:15;33.15;;;15.43;;
75207;SDS011;63795;55.684;37.864;2022-12-10T01:58:17;27.85;;;12.95;;
75207;SDS011;63795;55.684;37.864;2022-12-10T02:03:31;38.53;;;10.70;;
75207;SDS011;63795;55.684;37.864;2022-12-10T02:15:02;38.17;;;14.50;;
75207;SDS011;63795;55.684;37.864;2022-12-10T02:20:16;33.13;;;14.55;;
75207;SDS011;63795;55.684;37.864;2022-12-10T02:25:20;32.65;;;10.77;;
75207;SDS011;63795;55.684;37.864;2022-12-10T02:30:28;24.60;;;10.77;;
75207;SDS011;63795;55.684;37.864;2022-12-10T02:35:31;26.90;;;11.25;;
75207;SDS011;63795;55.684;37.864;2022-12-10T02:40:35;32.45;;;11.85;;
75207;SDS011;63795;55.684;37.864;2022-12-10T02:45:38;30.40;;;12.05;;
75207;SDS011;63795;55.684;37.864;2022-12-10T02:50:39;44.40;;;16.02;;
75207;SDS011;63795;55.684;37.864;2022-12-10T02:55:44;42.17;;;21.00;;
75207;SDS011;63795;55.684;37.864;2022-12-10T03:00:54;40.92;;;17.10;;
75207;SDS011;63795;55.684;37.864;2022-12-10T03:06:05;50.08;;;25.92;;
75207;SDS011;63795;55.684;37.864;2022-12-10T03:11:21;44.53;;;19.67;;
75207;SDS011;63795;55.684;37.864;2022-12-10T03:16:23;57.35;;;19.48;;
75207;SDS011;63795;55.684;37.864;2022-12-10T03:21:26;54.85;;;24.23;;
75207;SDS011;63795;55.684;37.864;2022-12-10T03:26:30;60.97;;;26.35;;
75207;SDS011;63795;55.684;37.864;2022-12-10T03:31:31;48.83;;;17.50;;
75207;SDS011;63795;55.684;37.864;2022-12-10T03:36:34;43.45;;;17.17;;
75207;SDS011;63795;55.684;37.864;2022-12-10T03:41:35;38.28;;;17.48;;
75207;SDS011;63795;55.684;37.864;2022-12-10T03:46:35;38.90;;;17.25;;
75207;SDS011;63795;55.684;37.864;2022-12-10T03:51:36;54.70;;;24.27;;
75207;SDS011;63795;55.684;37.864;2022-12-10T03:56:36;40.53;;;19.97;;
75207;SDS011;63795;55.684;37.864;2022-12-10T04:01:37;44.75;;;16.90;;
75207;SDS011;63795;55.684;37.864;2022-12-10T04:06:39;40.58;;;15.32;;
75207;SDS011;63795;55.684;37.864;2022-12-10T04:11:41;39.88;;;16.50;;
75207;SDS011;63795;55.684;37.864;2022-12-10T04:16:42;41.50;;;14.00;;
75207;SDS011;63795;55.684;37.864;2022-12-10T04:21:43;40.45;;;13.93;;
75207;SDS011;63795;55.684;37.864;2022-12-10T04:27:15;41.25;;;13.35;;
75207;SDS011;63795;55.684;37.864;2022-12-10T04:32:28;36.85;;;12.60;;
75207;SDS011;63795;55.684;37.864;2022-12-10T04:37:29;44.20;;;13.98;;
75207;SDS011;63795;55.684;37.864;2022-12-10T04:42:30;32.38;;;12.15;;
75207;SDS011;63795;55.684;37.864;2022-12-10T04:47:30;32.45;;;11.70;;
75207;SDS011;63795;55.684;37.864;2022-12-10T04:52:30;36.93;;;13.93;;
75207;SDS011;63795;55.684;37.864;2022-12-10T04:57:31;44.67;;;17.63;;
75207;SDS011;63795;55.684;37.864;2022-12-10T05:02:31;39.10;;;15.13;;
75207;SDS011;63795;55.684;37.864;2022-12-10T05:07:32;41.13;;;14.33;;
75207;SDS011;63795;55.684;37.864;2022-12-10T05:12:33;35.15;;;11.10;;
75207;SDS011;63795;55.684;37.864;2022-12-10T05:17:33;43.95;;;18.80;;
75207;SDS011;63795;55.684;37.864;2022-12-10T05:22:34;46.95;;;16.80;;
75207;SDS011;63795;55.684;37.864;2022-12-10T05:27:53;41.55;;;15.75;;
75207;SDS011;63795;55.684;37.864;2022-12-10T05:32:53;42.92;;;14.65;;
75207;SDS011;63795;55.684;37.864;2022-12-10T05:37:54;53.83;;;18.83;;
75207;SDS011;63795;55.684;37.864;2022-12-10T05:42:54;51.50;;;20.88;;
75207;SDS011;63795;55.684;37.864;2022-12-10T05:47:55;53.75;;;26.45;;
75207;SDS011;63795;55.684;37.864;2022-12-10T05:52:55;54.57;;;24.57;;
75207;SDS011;63795;55.684;37.864;2022-12-10T05:57:55;53.60;;;23.43;;
75207;SDS011;63795;55.684;37.864;2022-12-10T06:02:56;50.00;;;22.15;;
75207;SDS011;63795;55.684;37.864;2022-12-10T06:07:56;51.55;;;19.55;;
75207;SDS011;63795;55.684;37.864;2022-12-10T06:12:57;72.95;;;25.00;;
75207;SDS011;63795;55.684;37.864;2022-12-10T06:17:58;55.70;;;26.00;;
75207;SDS011;63795;55.684;37.864;2022-12-10T06:23:05;53.88;;;22.13;;
75207;SDS011;63795;55.684;37.864;2022-12-10T06:28:56;59.40;;;27.13;;
75207;SDS011;63795;55.684;37.864;2022-12-10T06:33:57;62.65;;;26.75;;
75207;SDS011;63795;55.684;37.864;2022-12-10T06:38:57;75.72;;;26.20;;
75207;SDS011;63795;55.684;37.864;2022-12-10T06:43:58;67.28;;;28.42;;
75207;SDS011;63795;55.684;37.864;2022-12-10T06:48:59;56.08;;;20.80;;
75207;SDS011;63795;55.684;37.864;2022-12-10T06:53:59;50.80;;;23.23;;
75207;SDS011;63795;55.684;37.864;2022-12-10T06:59:03;38.75;;;20.42;;
75207;SDS011;63795;55.684;37.864;2022-12-10T07:04:04;52.17;;;23.25;;
75207;SDS011;63795;55.684;37.864;2022-12-10T07:09:05;40.90;;;16.00;;
75207;SDS011;63795;55.684;37.864;2022-12-10T07:14:05;44.30;;;15.45;;
75207;SDS011;63795;55.684;37.864;2022-12-10T07:19:08;47.60;;;22.17;;
75207;SDS011;63795;55.684;37.864;2022-12-10T07:24:12;54.35;;;17.30;;
75207;SDS011;63795;55.684;37.864;2022-12-10T07:29:15;47.83;;;17.52;;
75207;SDS011;63795;55.684;37.864;2022-12-10T07:39:18;52.63;;;16.33;;
75207;SDS011;63795;55.684;37.864;2022-12-10T07:44:19;48.87;;;17.63;;
75207;SDS011;63795;55.684;37.864;2022-12-10T07:49:21;46.38;;;17.50;;
75207;SDS011;63795;55.684;37.864;2022-12-10T07:54:22;55.75;;;16.95;;
75207;SDS011;63795;55.684;37.864;2022-12-10T07:59:22;49.80;;;18.07;;
75207;SDS011;63795;55.684;37.864;2022-12-10T08:04:23;36.37;;;15.33;;
75207;SDS011;63795;55.684;37.864;2022-12-10T08:09:23;38.15;;;14.60;;
75207;SDS011;63795;55.684;37.864;2022-12-10T08:14:24;49.10;;;17.88;;
75207;SDS011;63795;55.684;37.864;2022-12-10T08:19:24;42.20;;;15.80;;
75207;SDS011;63795;55.684;37.864;2022-12-10T08:24:25;41.13;;;14.45;;
75207;SDS011;63795;55.684;37.864;2022-12-10T08:29:25;47.83;;;18.50;;
75207;SDS011;63795;55.684;37.864;2022-12-10T08:34:26;39.90;;;14.90;;
75207;SDS011;63795;55.684;37.864;2022-12-10T08:39:26;45.87;;;16.23;;
75207;SDS011;63795;55.684;37.864;2022-12-10T08:44:27;57.10;;;18.65;;
75207;SDS011;63795;55.684;37.864;2022-12-10T08:49:27;53.35;;;20.42;;
75207;SDS011;63795;55.684;37.864;2022-12-10T08:54:28;56.92;;;22.63;;
75207;SDS011;63795;55.684;37.864;2022-12-10T08:59:28;54.00;;;18.00;;
75207;SDS011;63795;55.684;37.864;2022-12-10T09:04:29;48.83;;;17.25;;
75207;SDS011;63795;55.684;37.864;2022-12-10T09:09:30;52.03;;;16.63;;
75207;SDS011;63795;55.684;37.864;2022-12-10T09:14:32;53.00;;;19.33;;
75207;SDS011;63795;55.684;37.864;2022-12-10T09:19:32;56.67;;;17.35;;
75207;SDS011;63795;55.684;37.864;2022-12-10T09:24:33;51.22;;;20.27;;
75207;SDS011;63795;55.684;37.864;2022-12-10T09:29:34;57.90;;;19.42;;
75207;SDS011;63795;55.684;37.864;2022-12-10T09:34:35;48.67;;;21.15;;
75207;SDS011;63795;55.684;37.864;2022-12-10T09:39:35;49.92;;;14.23;;
75207;SDS011;63795;55.684;37.864;2022-12-10T09:49:52;55.38;;;17.92;;
75207;SDS011;63795;55.684;37.864;2022-12-10T09:55:14;51.03;;;14.38;;
75207;SDS011;63795;55.684;37.864;2022-12-10T10:00:29;53.90;;;17.13;;
75207;SDS011;63795;55.684;37.864;2022-12-10T10:05:35;57.40;;;16.52;;
75207;SDS011;63795;55.684;37.864;2022-12-10T10:10:39;49.25;;;14.50;;
75207;SDS011;63795;55.684;37.864;2022-12-10T10:15:43;47.90;;;15.48;;
75207;SDS011;63795;55.684;37.864;2022-12-10T10:20:44;59.25;;;15.82;;
75207;SDS011;63795;55.684;37.864;2022-12-10T10:25:46;58.60;;;16.80;;
75207;SDS011;63795;55.684;37.864;2022-12-10T10:30:47;52.88;;;14.93;;
75207;SDS011;63795;55.684;37.864;2022-12-10T10:35:48;61.58;;;14.73;;
75207;SDS011;63795;55.684;37.864;2022-12-10T10:40:58;65.40;;;15.70;;
75207;SDS011;63795;55.684;37.864;2022-12-10T10:46:02;65.45;;;18.58;;
75207;SDS011;63795;55.684;37.864;2022-12-10T10:51:08;74.68;;;16.73;;
75207;SDS011;63795;55.684;37.864;2022-12-10T11:01:48;53.63;;;15.60;;
75207;SDS011;63795;55.684;37.864;2022-12-10T11:06:52;44.83;;;12.93;;
75207;SDS011;63795;55.684;37.864;2022-12-10T11:11:58;56.35;;;15.23;;
75207;SDS011;63795;55.684;37.864;2022-12-10T11:27:57;62.33;;;17.70;;
75207;SDS011;63795;55.684;37.864;2022-12-10T11:33:44;75.13;;;19.70;;
75207;SDS011;63795;55.684;37.864;2022-12-10T11:38:41;109.35;;;27.33;;
75207;SDS011;63795;55.684;37.864;2022-12-10T11:43:54;93.10;;;20.80;;
75207;SDS011;63795;55.684;37.864;2022-12-10T11:49:10;79.03;;;23.17;;
75207;SDS011;63795;55.684;37.864;2022-12-10T11:59:23;85.53;;;33.92;;
75207;SDS011;63795;55.684;37.864;2022-12-10T12:25:31;36.08;;;13.77;;
75207;SDS011;63795;55.684;37.864;2022-12-10T12:30:37;31.85;;;11.60;;
75207;SDS011;63795;55.684;37.864;2022-12-10T12:35:47;38.08;;;13.38;;
75207;SDS011;63795;55.684;37.864;2022-12-10T12:40:54;32.70;;;13.20;;
75207;SDS011;63795;55.684;37.864;2022-12-10T12:45:55;35.72;;;13.68;;
75207;SDS011;63795;55.684;37.864;2022-12-10T12:51:06;36.33;;;12.75;;
75207;SDS011;63795;55.684;37.864;2022-12-10T13:07:47;34.45;;;12.52;;
75207;SDS011;63795;55.684;37.864;2022-12-10T13:23:08;48.45;;;20.85;;
75207;SDS011;63795;55.684;37.864;2022-12-10T13:33:25;47.33;;;19.30;;
75207;SDS011;63795;55.684;37.864;2022-12-10T13:38:54;49.72;;;18.20;;
75207;SDS011;63795;55.684;37.864;2022-12-10T13:44:31;33.00;;;10.85;;
75207;SDS011;63795;55.684;37.864;2022-12-10T13:50:00;38.75;;;14.25;;
75207;SDS011;63795;55.684;37.864;2022-12-10T14:00:20;36.83;;;14.50;;
75207;SDS011;63795;55.684;37.864;2022-12-10T14:05:24;25.05;;;10.82;;
75207;SDS011;63795;55.684;37.864;2022-12-10T14:10:35;29.52;;;10.85;;
75207;SDS011;63795;55.684;37.864;2022-12-10T14:15:37;29.02;;;11.27;;
75207;SDS011;63795;55.684;37.864;2022-12-10T14:20:39;27.80;;;13.57;;
75207;SDS011;63795;55.684;37.864;2022-12-10T14:25:45;35.08;;;14.88;;
75207;SDS011;63795;55.684;37.864;2022-12-10T14:30:48;26.27;;;11.23;;
75207;SDS011;63795;55.684;37.864;2022-12-10T14:35:50;27.13;;;9.57;;
75207;SDS011;63795;55.684;37.864;2022-12-10T14:40:52;24.50;;;10.40;;
75207;SDS011;63795;55.684;37.864;2022-12-10T14:45:55;27.60;;;11.77;;
75207;SDS011;63795;55.684;37.864;2022-12-10T14:51:20;32.92;;;14.20;;
75207;SDS011;63795;55.684;37.864;2022-12-10T14:56:30;29.45;;;12.82;;
75207;SDS011;63795;55.684;37.864;2022-12-10T15:01:34;35.55;;;12.75;;
75207;SDS011;63795;55.684;37.864;2022-12-10T15:06:38;29.00;;;11.68;;
75207;SDS011;63795;55.684;37.864;2022-12-10T15:11:39;26.00;;;10.73;;
75207;SDS011;63795;55.684;37.864;2022-12-10T15:16:41;28.50;;;9.40;;
75207;SDS011;63795;55.684;37.864;2022-12-10T15:21:43;18.52;;;8.25;;
75207;SDS011;63795;55.684;37.864;2022-12-10T15:26:45;21.73;;;8.40;;
75207;SDS011;63795;55.684;37.864;2022-12-10T15:31:48;19.27;;;8.40;;
75207;SDS011;63795;55.684;37.864;2022-12-10T15:36:50;18.00;;;8.43;;
75207;SDS011;63795;55.684;37.864;2022-12-10T15:41:57;23.27;;;11.68;;
75207;SDS011;63795;55.684;37.864;2022-12-10T15:47:14;23.60;;;10.27;;
75207;SDS011;63795;55.684;37.864;2022-12-10T15:52:19;34.45;;;15.90;;
75207;SDS011;63795;55.684;37.864;2022-12-10T15:57:31;18.73;;;8.82;;
75207;SDS011;63795;55.684;37.864;2022-12-10T16:02:37;22.30;;;9.05;;
75207;SDS011;63795;55.684;37.864;2022-12-10T16:07:49;23.83;;;12.43;;
75207;SDS011;63795;55.684;37.864;2022-12-10T16:13:05;24.52;;;13.90;;
75207;SDS011;63795;55.684;37.864;2022-12-10T16:18:10;21.80;;;7.93;;
75207;SDS011;63795;55.684;37.864;2022-12-10T16:23:11;18.05;;;7.95;;
75207;SDS011;63795;55.684;37.864;2022-12-10T16:28:18;16.25;;;7.70;;
75207;SDS011;63795;55.684;37.864;2022-12-10T16:33:21;12.45;;;6.70;;
75207;SDS011;63795;55.684;37.864;2022-12-10T16:38:23;19.83;;;9.32;;
75207;SDS011;63795;55.684;37.864;2022-12-10T16:43:26;15.88;;;6.63;;
75207;SDS011;63795;55.684;37.864;2022-12-10T16:48:32;16.17;;;7.43;;
75207;SDS011;63795;55.684;37.864;2022-12-10T16:53:32;18.88;;;8.98;;
75207;SDS011;63795;55.684;37.864;2022-12-10T16:58:35;14.30;;;5.60;;
75207;SDS011;63795;55.684;37.864;2022-12-10T17:03:36;16.55;;;7.43;;
75207;SDS011;63795;55.684;37.864;2022-12-10T17:08:38;14.65;;;7.43;;
75207;SDS011;63795;55.684;37.864;2022-12-10T17:13:39;16.20;;;7.82;;
75207;SDS011;63795;55.684;37.864;2022-12-10T17:18:41;13.02;;;5.63;;
75207;SDS011;63795;55.684;37.864;2022-12-10T17:23:42;14.73;;;6.22;;
75207;SDS011;63795;55.684;37.864;2022-12-10T17:28:43;13.48;;;7.13;;
75207;SDS011;63795;55.684;37.864;2022-12-10T17:33:43;19.67;;;8.67;;
75207;SDS011;63795;55.684;37.864;2022-12-10T17:38:44;18.27;;;8.85;;
75207;SDS011;63795;55.684;37.864;2022-12-10T17:43:44;16.43;;;8.33;;
75207;SDS011;63795;55.684;37.864;2022-12-10T17:48:45;16.58;;;9.40;;
75207;SDS011;63795;55.684;37.864;2022-12-10T17:53:45;19.40;;;7.97;;
75207;SDS011;63795;55.684;37.864;2022-12-10T17:58:47;18.50;;;8.07;;
75207;SDS011;63795;55.684;37.864;2022-12-10T18:03:49;23.23;;;12.35;;
75207;SDS011;63795;55.684;37.864;2022-12-10T18:08:51;18.13;;;8.83;;
75207;SDS011;63795;55.684;37.864;2022-12-10T18:13:52;20.73;;;10.27;;
75207;SDS011;63795;55.684;37.864;2022-12-10T18:18:53;24.55;;;11.18;;
75207;SDS011;63795;55.684;37.864;2022-12-10T18:23:55;26.75;;;11.60;;
75207;SDS011;63795;55.684;37.864;2022-12-10T18:28:56;13.13;;;6.88;;
75207;SDS011;63795;55.684;37.864;2022-12-10T18:33:59;11.27;;;5.40;;
75207;SDS011;63795;55.684;37.864;2022-12-10T18:39:05;12.38;;;5.47;;
75207;SDS011;63795;55.684;37.864;2022-12-10T18:44:07;9.65;;;4.95;;
75207;SDS011;63795;55.684;37.864;2022-12-10T18:49:11;13.30;;;5.50;;
75207;SDS011;63795;55.684;37.864;2022-12-10T18:54:12;9.57;;;4.78;;
75207;SDS011;63795;55.684;37.864;2022-12-10T18:59:14;14.27;;;7.68;;
75207;SDS011;63795;55.684;37.864;2022-12-10T19:04:17;24.15;;;15.95;;
75207;SDS011;63795;55.684;37.864;2022-12-10T19:09:17;26.45;;;12.13;;
75207;SDS011;63795;55.684;37.864;2022-12-10T19:14:18;11.60;;;6.57;;
75207;SDS011;63795;55.684;37.864;2022-12-10T19:19:20;17.45;;;9.00;;
75207;SDS011;63795;55.684;37.864;2022-12-10T19:24:20;15.75;;;8.88;;
75207;SDS011;63795;55.684;37.864;2022-12-10T19:29:21;13.20;;;6.35;;
75207;SDS011;63795;55.684;37.864;2022-12-10T19:34:22;9.88;;;5.40;;
75207;SDS011;63795;55.684;37.864;2022-12-10T19:39:24;10.13;;;5.40;;
75207;SDS011;63795;55.684;37.864;2022-12-10T19:44:25;15.13;;;5.70;;
75207;SDS011;63795;55.684;37.864;2022-12-10T19:49:25;16.55;;;8.27;;
75207;SDS011;63795;55.684;37.864;2022-12-10T19:54:26;21.80;;;9.00;;
75207;SDS011;63795;55.684;37.864;2022-12-10T19:59:26;22.30;;;9.90;;
75207;SDS011;63795;55.684;37.864;2022-12-10T20:04:27;14.40;;;6.03;;
75207;SDS011;63795;55.684;37.864;2022-12-10T20:09:28;11.68;;;6.18;;
75207;SDS011;63795;55.684;37.864;2022-12-10T20:14:28;14.20;;;6.13;;
75207;SDS011;63795;55.684;37.864;2022-12-10T20:19:29;14.45;;;8.60;;
75207;SDS011;63795;55.684;37.864;2022-12-10T20:24:29;22.77;;;10.45;;
75207;SDS011;63795;55.684;37.864;2022-12-10T20:29:30;11.52;;;6.03;;
75207;SDS011;63795;55.684;37.864;2022-12-10T20:34:30;12.82;;;6.63;;
75207;SDS011;63795;55.684;37.864;2022-12-10T20:39:32;12.80;;;7.30;;
75207;SDS011;63795;55.684;37.864;2022-12-10T20:44:33;10.70;;;7.13;;
75207;SDS011;63795;55.684;37.864;2022-12-10T20:49:34;9.98;;;5.10;;
75207;SDS011;63795;55.684;37.864;2022-12-10T20:54:35;7.30;;;3.08;;
75207;SDS011;63795;55.684;37.864;2022-12-10T20:59:35;6.27;;;3.13;;
75207;SDS011;63795;55.684;37.864;2022-12-10T21:04:36;5.65;;;2.13;;
75207;SDS011;63795;55.684;37.864;2022-12-10T21:09:37;8.77;;;4.07;;
75207;SDS011;63795;55.684;37.864;2022-12-10T21:14:37;5.65;;;2.75;;
75207;SDS011;63795;55.684;37.864;2022-12-10T21:19:38;12.15;;;5.45;;
75207;SDS011;63795;55.684;37.864;2022-12-10T21:24:39;8.88;;;3.78;;
75207;SDS011;63795;55.684;37.864;2022-12-10T21:29:40;7.90;;;3.92;;
75207;SDS011;63795;55.684;37.864;2022-12-10T21:34:40;6.90;;;3.85;;
75207;SDS011;63795;55.684;37.864;2022-12-10T21:39:41;6.28;;;3.83;;
75207;SDS011;63795;55.684;37.864;2022-12-10T21:44:42;6.20;;;2.58;;
75207;SDS011;63795;55.684;37.864;2022-12-10T21:49:42;7.40;;;4.40;;
75207;SDS011;63795;55.684;37.864;2022-12-10T21:54:43;11.83;;;5.00;;
75207;SDS011;63795;55.684;37.864;2022-12-10T21:59:43;9.07;;;4.63;;
75207;SDS011;63795;55.684;37.864;2022-12-10T22:04:44;11.75;;;5.50;;
75207;SDS011;63795;55.684;37.864;2022-12-10T22:09:44;16.70;;;7.17;;
75207;SDS011;63795;55.684;37.864;2022-12-10T22:14:45;12.93;;;4.97;;
75207;SDS011;63795;55.684;37.864;2022-12-10T22:19:46;8.35;;;2.53;;
75207;SDS011;63795;55.684;37.864;2022-12-10T22:24:46;7.05;;;3.60;;
75207;SDS011;63795;55.684;37.864;2022-12-10T22:29:47;6.68;;;2.38;;
75207;SDS011;63795;55.684;37.864;2022-12-10T22:34:47;6.00;;;2.40;;
75207;SDS011;63795;55.684;37.864;2022-12-10T22:39:48;13.18;;;7.32;;
75207;SDS011;63795;55.684;37.864;2022-12-10T22:44:48;23.67;;;13.65;;
75207;SDS011;63795;55.684;37.864;2022-12-10T22:49:48;7.80;;;4.63;;
75207;SDS011;63795;55.684;37.864;2022-12-10T22:54:49;8.27;;;5.70;;
75207;SDS011;63795;55.684;37.864;2022-12-10T22:59:50;6.38;;;2.83;;
75207;SDS011;63795;55.684;37.864;2022-12-10T23:04:51;9.23;;;7.03;;
75207;SDS011;63795;55.684;37.864;2022-12-10T23:09:51;7.72;;;4.68;;
75207;SDS011;63795;55.684;37.864;2022-12-10T23:14:52;7.97;;;3.30;;
75207;SDS011;63795;55.684;37.864;2022-12-10T23:19:52;8.93;;;3.93;;
75207;SDS011;63795;55.684;37.864;2022-12-10T23:24:53;9.80;;;3.33;;
75207;SDS011;63795;55.684;37.864;2022-12-10T23:29:54;8.85;;;5.13;;
75207;SDS011;63795;55.684;37.864;2022-12-10T23:34:54;10.95;;;3.75;;
75207;SDS011;63795;55.684;37.864;2022-12-10T23:39:55;14.80;;;4.67;;
75207;SDS011;63795;55.684;37.864;2022-12-10T23:44:55;13.38;;;6.05;;
75207;SDS011;63795;55.684;37.864;2022-12-10T23:49:57;12.27;;;4.95;;
75207;SDS011;63795;55.684;37.864;2022-12-10T23:54:57;11.75;;;5.47;;
75207;SDS011;63795;55.684;37.864;2022-12-10T23:59:58;12.88;;;6.00;;
